Chlef, Algeria
Current Conditions -  °F | °C
As of 10:00 PM on Wednesday 22 Oct 2014 (Local Time) from DAOI Reporting Station
Clear Clear  
Wind Chill: 68°   Ceiling: Unl
Heat Index: 68°   Visibility: 6mi
Dew Point: 59°   Wind: 3mph
Humidity: 73%   Direction: 20°NNE
Pressure: 30.18"   Gusts: NA
Location:  36.2°N, 1.26°E
Report Text: DAOI 222100Z 02003KT CAVOK 20/15 Q1022
Loading
Personal Weather Stations






























Interactive Weather Map
Tropical Storm Tracking
New forecast layout! Learn more

10-Day Weather Forecast

Advertisements
Track Severe Weather on mobile